createdAt,value
2022-11-29T00:01:32.872Z,6.53
2022-11-29T00:04:00.297Z,6.30
2022-11-29T00:06:29.830Z,6.20
2022-11-29T00:08:59.506Z,6.83
2022-11-29T00:11:29.524Z,6.50
2022-11-29T00:13:56.402Z,6.50
2022-11-29T00:16:23.299Z,6.35
2022-11-29T00:18:50.337Z,7.05
2022-11-29T00:21:17.313Z,6.37
2022-11-29T00:23:44.124Z,6.40
2022-11-29T00:26:11.020Z,6.55
2022-11-29T00:28:37.730Z,6.85
2022-11-29T00:31:19.451Z,6.88
2022-11-29T00:33:46.934Z,6.60
2022-11-29T00:36:14.087Z,7.18
2022-11-29T00:38:41.982Z,6.78
2022-11-29T00:41:09.633Z,7.10
2022-11-29T00:43:37.040Z,7.80
2022-11-29T00:46:04.576Z,6.13
2022-11-29T00:48:31.925Z,6.80
2022-11-29T00:50:58.856Z,7.07
2022-11-29T00:53:25.780Z,6.00
2022-11-29T00:55:53.473Z,7.22
2022-11-29T00:58:21.523Z,6.93
2022-11-29T01:00:48.898Z,6.28
2022-11-29T01:03:16.893Z,6.38
2022-11-29T01:05:44.110Z,6.80
2022-11-29T01:08:12.120Z,6.00
2022-11-29T01:10:38.953Z,6.77
2022-11-29T01:13:06.267Z,6.55
2022-11-29T01:15:33.401Z,6.55
2022-11-29T01:18:00.302Z,6.75
2022-11-29T01:20:27.801Z,6.63
2022-11-29T01:22:54.675Z,6.70
2022-11-29T01:25:21.556Z,6.53
2022-11-29T01:27:48.307Z,6.80
2022-11-29T01:30:15.487Z,6.30
2022-11-29T01:32:42.588Z,6.93
2022-11-29T01:35:09.626Z,6.60
2022-11-29T01:37:36.582Z,7.38
2022-11-29T01:40:04.424Z,7.75
2022-11-29T01:42:31.283Z,7.70
2022-11-29T01:45:19.154Z,7.43
2022-11-29T01:47:46.538Z,7.63
2022-11-29T01:50:13.759Z,7.72
2022-11-29T01:52:42.061Z,7.80
2022-11-29T01:55:09.729Z,7.63
2022-11-29T01:57:40.300Z,8.02
2022-11-29T02:00:15.541Z,8.33
2022-11-29T02:02:47.633Z,7.93
2022-11-29T02:05:17.213Z,8.00
2022-11-29T02:07:46.757Z,8.15
2022-11-29T02:10:15.602Z,8.60
2022-11-29T02:13:30.047Z,9.20
2022-11-29T02:16:10.532Z,9.50
2022-11-29T02:18:48.771Z,10.00
2022-11-29T02:21:19.324Z,10.02
2022-11-29T02:24:06.193Z,9.93
2022-11-29T02:27:18.008Z,9.80
2022-11-29T02:30:06.393Z,10.20
2022-11-29T02:33:13.030Z,10.77
2022-11-29T02:36:37.032Z,9.63
2022-11-29T02:39:25.394Z,10.55
2022-11-29T02:42:02.284Z,9.93
2022-11-29T02:44:49.076Z,10.18
2022-11-29T02:47:24.875Z,10.25
2022-11-29T02:50:13.385Z,9.55
2022-11-29T02:53:02.098Z,9.70
2022-11-29T02:55:45.447Z,8.30
2022-11-29T02:58:27.436Z,9.18
2022-11-29T03:01:09.193Z,9.70
2022-11-29T03:03:54.329Z,10.00
2022-11-29T03:06:55.069Z,9.45
2022-11-29T03:09:24.466Z,9.10
2022-11-29T03:12:03.179Z,9.63
2022-11-29T03:14:54.576Z,8.98
2022-11-29T03:17:52.371Z,8.95
2022-11-29T03:20:24.797Z,9.45
2022-11-29T03:23:23.722Z,9.80
2022-11-29T03:26:18.969Z,9.57
2022-11-29T03:29:07.744Z,9.50
2022-11-29T03:31:47.974Z,8.60
2022-11-29T03:34:24.481Z,8.90
2022-11-29T03:37:10.047Z,8.53
2022-11-29T03:39:59.766Z,8.73
2022-11-29T03:42:34.470Z,8.63
2022-11-29T03:45:03.946Z,8.77
2022-11-29T03:47:37.437Z,9.07
2022-11-29T03:50:14.010Z,8.90
2022-11-29T03:52:54.660Z,8.57
2022-11-29T03:55:21.583Z,8.48
2022-11-29T03:58:01.696Z,8.57
2022-11-29T04:00:45.092Z,8.38
2022-11-29T04:03:33.151Z,8.13
2022-11-29T04:06:24.770Z,7.88
2022-11-29T04:09:20.609Z,7.57
2022-11-29T04:12:08.564Z,8.00
2022-11-29T04:15:12.825Z,7.70
2022-11-29T04:18:00.290Z,7.67
2022-11-29T04:20:48.680Z,7.97
2022-11-29T04:24:03.426Z,8.45
2022-11-29T04:27:05.140Z,8.75
2022-11-29T04:29:37.967Z,8.48
2022-11-29T04:32:30.130Z,9.00
2022-11-29T04:35:37.430Z,8.18
2022-11-29T04:38:41.560Z,8.73
2022-11-29T04:41:42.490Z,9.07
2022-11-29T04:44:27.482Z,9.85
2022-11-29T04:47:05.241Z,9.77
2022-11-29T04:49:58.404Z,11.63
2022-11-29T04:52:31.319Z,10.57
2022-11-29T04:55:35.759Z,8.40
2022-11-29T04:58:14.426Z,9.80
2022-11-29T05:01:10.661Z,9.37
2022-11-29T05:03:47.054Z,9.25
2022-11-29T05:06:38.081Z,10.25
2022-11-29T05:09:28.205Z,10.60
2022-11-29T05:12:17.639Z,8.90
2022-11-29T05:14:59.626Z,9.33
2022-11-29T05:17:49.679Z,8.70
2022-11-29T05:20:46.531Z,8.30
2022-11-29T05:23:34.784Z,7.47
2022-11-29T05:26:14.069Z,7.07
2022-11-29T05:28:49.800Z,10.10
2022-11-29T05:31:21.776Z,9.70
2022-11-29T05:33:59.490Z,10.27
2022-11-29T05:36:55.241Z,9.23
2022-11-29T05:39:30.782Z,9.55
2022-11-29T05:42:15.919Z,9.10
2022-11-29T05:44:51.070Z,8.55
2022-11-29T05:47:29.792Z,8.85
2022-11-29T05:50:19.175Z,8.38
2022-11-29T05:53:13.146Z,9.07
2022-11-29T05:56:02.344Z,8.23
2022-11-29T05:58:48.977Z,8.10
2022-11-29T06:01:30.013Z,8.15
2022-11-29T06:04:14.772Z,7.78
2022-11-29T06:06:48.126Z,8.38
2022-11-29T06:09:27.523Z,8.27
2022-11-29T06:12:04.584Z,8.05
2022-11-29T06:14:51.799Z,8.32
2022-11-29T06:17:21.543Z,8.20
2022-11-29T06:19:54.467Z,8.43
2022-11-29T06:22:45.936Z,8.53
2022-11-29T06:25:47.295Z,8.68
2022-11-29T06:28:22.362Z,9.05
2022-11-29T06:31:13.419Z,8.20
2022-11-29T06:34:03.424Z,8.43
2022-11-29T06:37:02.347Z,8.33
2022-11-29T06:39:29.441Z,8.85
2022-11-29T06:41:56.559Z,8.48
2022-11-29T06:44:23.854Z,9.27
2022-11-29T06:47:09.498Z,11.38
2022-11-29T06:49:39.751Z,10.20
2022-11-29T06:52:25.129Z,10.88
2022-11-29T06:55:16.780Z,10.80
2022-11-29T06:58:04.540Z,10.20
2022-11-29T07:01:01.985Z,10.55
2022-11-29T07:03:59.259Z,10.30
2022-11-29T07:06:28.584Z,9.55
2022-11-29T07:09:11.725Z,9.93
2022-11-29T07:11:39.158Z,9.90
2022-11-29T07:14:06.254Z,10.18
2022-11-29T07:16:43.282Z,9.50
2022-11-29T07:19:30.875Z,9.57
2022-11-29T07:22:18.829Z,10.75
2022-11-29T07:24:56.700Z,9.88
2022-11-29T07:27:57.471Z,10.35
2022-11-29T07:30:30.430Z,9.60
2022-11-29T07:33:06.301Z,9.48
2022-11-29T07:35:41.813Z,9.25
2022-11-29T07:38:36.727Z,9.40
2022-11-29T07:41:21.181Z,10.30
2022-11-29T07:44:01.469Z,9.80
2022-11-29T07:46:28.303Z,10.15
2022-11-29T07:48:55.454Z,10.07
2022-11-29T07:51:22.416Z,9.35
2022-11-29T07:53:49.482Z,9.82
2022-11-29T07:56:16.280Z,9.40
2022-11-29T07:58:44.089Z,9.32
2022-11-29T08:01:11.118Z,10.18
2022-11-29T08:03:38.251Z,8.60
2022-11-29T08:06:05.142Z,9.77
2022-11-29T08:08:32.154Z,10.17
2022-11-29T08:10:59.212Z,8.88
2022-11-29T08:13:26.222Z,10.38
2022-11-29T08:15:53.168Z,10.60
2022-11-29T08:18:20.088Z,10.70
2022-11-29T08:20:46.893Z,10.73
2022-11-29T08:23:14.707Z,11.10
2022-11-29T08:25:41.554Z,10.85
2022-11-29T08:28:08.835Z,11.18
2022-11-29T08:30:35.871Z,11.00
2022-11-29T08:33:02.770Z,11.00
2022-11-29T08:35:29.761Z,11.25
2022-11-29T08:37:59.563Z,11.63
2022-11-29T08:40:26.342Z,11.02
2022-11-29T08:42:57.839Z,11.05
2022-11-29T08:45:24.773Z,11.40
2022-11-29T08:47:51.672Z,11.15
2022-11-29T08:50:18.751Z,10.38
2022-11-29T08:52:47.820Z,10.70
2022-11-29T08:55:14.762Z,10.43
2022-11-29T08:57:41.892Z,10.67
2022-11-29T09:00:10.361Z,10.63
2022-11-29T09:02:37.497Z,10.90
2022-11-29T09:05:06.267Z,10.35
2022-11-29T09:07:33.546Z,9.95
2022-11-29T09:10:00.415Z,10.30
2022-11-29T09:12:27.377Z,10.85
2022-11-29T09:14:54.178Z,10.48
2022-11-29T09:17:21.054Z,10.15
2022-11-29T09:19:47.877Z,8.50
2022-11-29T09:22:21.901Z,10.17
2022-11-29T09:24:48.751Z,10.90
2022-11-29T09:27:15.683Z,10.05
2022-11-29T09:29:42.845Z,10.05
2022-11-29T09:32:09.699Z,9.38
2022-11-29T09:34:36.677Z,10.93
2022-11-29T09:37:05.179Z,11.18
2022-11-29T09:39:32.059Z,10.88
2022-11-29T09:42:31.368Z,11.10
2022-11-29T09:45:03.135Z,9.77
2022-11-29T09:47:48.349Z,9.90
2022-11-29T09:50:33.936Z,10.00
2022-11-29T09:53:32.039Z,10.57
2022-11-29T09:56:15.784Z,10.68
2022-11-29T09:58:46.178Z,11.77
2022-11-29T10:01:35.720Z,7.90
2022-11-29T10:04:05.757Z,7.40
2022-11-29T10:06:50.434Z,7.50
2022-11-29T10:09:34.054Z,7.65
2022-11-29T10:12:42.988Z,7.70
2022-11-29T10:15:19.304Z,7.50
2022-11-29T10:17:55.544Z,7.10
2022-11-29T10:20:29.417Z,7.75
2022-11-29T10:23:11.888Z,7.85
2022-11-29T10:25:48.021Z,7.97
2022-11-29T10:28:17.701Z,8.67
2022-11-29T10:30:45.115Z,9.43
2022-11-29T10:33:34.549Z,9.88
2022-11-29T10:36:11.030Z,8.65
2022-11-29T10:38:37.882Z,8.98
2022-11-29T10:41:10.839Z,8.67
2022-11-29T10:43:38.532Z,7.95
2022-11-29T10:46:10.820Z,8.00
2022-11-29T10:48:37.933Z,8.77
2022-11-29T10:51:16.972Z,8.32
2022-11-29T10:53:45.583Z,7.40
2022-11-29T10:56:18.174Z,7.35
2022-11-29T10:58:56.753Z,7.55
2022-11-29T11:01:24.584Z,7.60
2022-11-29T11:03:54.204Z,8.05
2022-11-29T11:06:41.639Z,8.03
2022-11-29T11:09:28.168Z,8.23
2022-11-29T11:12:05.080Z,8.13
2022-11-29T11:14:35.068Z,7.90
2022-11-29T11:17:34.336Z,7.97
2022-11-29T11:20:02.344Z,7.60
2022-11-29T11:22:30.093Z,7.78
2022-11-29T11:25:07.332Z,8.40
2022-11-29T11:27:36.970Z,8.02
2022-11-29T11:30:07.753Z,8.10
2022-11-29T11:32:34.618Z,8.83
2022-11-29T11:35:02.542Z,8.45
2022-11-29T11:37:32.183Z,8.35
2022-11-29T11:40:18.080Z,8.68
2022-11-29T11:42:45.583Z,8.35
2022-11-29T11:45:12.341Z,9.07
2022-11-29T11:47:48.504Z,8.45
2022-11-29T11:50:24.728Z,8.43
2022-11-29T11:53:25.383Z,8.20
2022-11-29T11:55:59.812Z,8.85
2022-11-29T11:58:37.927Z,8.57
2022-11-29T12:01:15.583Z,8.40
2022-11-29T12:04:10.008Z,8.43
2022-11-29T12:06:40.890Z,8.68
2022-11-29T12:09:26.027Z,8.60
2022-11-29T12:12:07.951Z,9.20
2022-11-29T12:14:56.461Z,8.30
2022-11-29T12:17:34.286Z,8.65
2022-11-29T12:20:14.400Z,8.52
2022-11-29T12:22:48.691Z,8.82
2022-11-29T12:25:22.268Z,8.13
2022-11-29T12:27:50.946Z,8.35
2022-11-29T12:30:19.207Z,8.68
2022-11-29T12:33:15.151Z,7.90
2022-11-29T12:36:02.250Z,7.80
2022-11-29T12:38:34.724Z,7.73
2022-11-29T12:41:26.669Z,7.88
2022-11-29T12:44:07.845Z,7.80
2022-11-29T12:46:35.060Z,7.65
2022-11-29T12:49:24.021Z,7.38
2022-11-29T12:52:15.606Z,7.53
2022-11-29T12:55:03.602Z,7.78
2022-11-29T12:57:44.844Z,7.45
2022-11-29T13:00:15.227Z,8.32
2022-11-29T13:02:45.192Z,8.20
2022-11-29T13:05:34.141Z,7.93
2022-11-29T13:08:14.568Z,7.60
2022-11-29T13:11:03.136Z,7.75
2022-11-29T13:13:35.901Z,8.10
2022-11-29T13:16:30.837Z,9.30
2022-11-29T13:19:02.070Z,7.57
2022-11-29T13:21:55.349Z,7.97
2022-11-29T13:24:47.770Z,7.88
2022-11-29T13:27:32.075Z,7.78
2022-11-29T13:30:02.792Z,7.85
2022-11-29T13:32:40.238Z,7.80
2022-11-29T13:35:17.522Z,7.57
2022-11-29T13:38:09.975Z,7.90
2022-11-29T13:40:59.846Z,7.50
2022-11-29T13:43:38.778Z,7.40
2022-11-29T13:46:14.888Z,7.40
2022-11-29T13:48:50.833Z,7.00
2022-11-29T13:51:37.450Z,8.25
2022-11-29T13:54:30.888Z,8.07
2022-11-29T13:57:10.049Z,7.97
2022-11-29T13:59:47.409Z,8.10
2022-11-29T14:02:31.530Z,7.47
2022-11-29T14:04:58.993Z,7.93
2022-11-29T14:07:25.937Z,8.07
2022-11-29T14:10:28.531Z,8.20
2022-11-29T14:12:57.328Z,8.13
2022-11-29T14:15:30.088Z,7.95
2022-11-29T14:18:07.202Z,7.70
2022-11-29T14:20:39.956Z,7.82
2022-11-29T14:23:06.912Z,7.72
2022-11-29T14:25:56.983Z,7.67
2022-11-29T14:28:23.641Z,7.40
2022-11-29T14:30:52.600Z,8.07
2022-11-29T14:33:38.247Z,8.00
2022-11-29T14:36:20.492Z,7.45
2022-11-29T14:38:56.180Z,8.13
2022-11-29T14:42:03.337Z,7.80
2022-11-29T14:44:32.159Z,8.07
2022-11-29T14:47:22.145Z,8.43
2022-11-29T14:49:49.023Z,8.27
2022-11-29T14:52:15.738Z,8.50
2022-11-29T14:55:00.000Z,8.00
2022-11-29T14:57:48.571Z,7.70
2022-11-29T15:00:15.529Z,7.95
2022-11-29T15:02:52.868Z,9.18
2022-11-29T15:05:32.720Z,8.67
2022-11-29T15:08:21.260Z,8.20
2022-11-29T15:10:57.373Z,8.38
2022-11-29T15:13:30.264Z,7.70
2022-11-29T15:16:14.435Z,7.75
2022-11-29T15:18:47.361Z,8.00
2022-11-29T15:21:43.706Z,8.43
2022-11-29T15:24:13.394Z,8.57
2022-11-29T15:26:56.849Z,8.65
2022-11-29T15:29:24.313Z,8.80
2022-11-29T15:31:57.077Z,8.10
2022-11-29T15:34:35.184Z,8.20
2022-11-29T15:37:02.132Z,8.27
2022-11-29T15:39:37.360Z,8.02
2022-11-29T15:42:11.472Z,8.55
2022-11-29T15:44:45.123Z,8.90
2022-11-29T15:47:25.254Z,8.70
2022-11-29T15:49:53.898Z,8.52
2022-11-29T15:52:35.099Z,8.57
2022-11-29T15:55:06.227Z,8.52
2022-11-29T15:57:43.218Z,9.00
2022-11-29T16:00:18.274Z,9.27
2022-11-29T16:02:51.052Z,8.32
2022-11-29T16:05:28.337Z,8.45
2022-11-29T16:08:01.073Z,8.10
2022-11-29T16:11:07.123Z,9.37
2022-11-29T16:13:40.930Z,9.38
2022-11-29T16:16:14.080Z,9.45
2022-11-29T16:18:46.477Z,9.68
2022-11-29T16:21:26.787Z,9.32
2022-11-29T16:23:54.856Z,8.90
2022-11-29T16:26:34.416Z,8.90
2022-11-29T16:29:01.573Z,8.98
2022-11-29T16:31:36.832Z,9.32
2022-11-29T16:34:26.486Z,8.68
2022-11-29T16:37:05.282Z,9.00
2022-11-29T16:39:35.519Z,8.52
2022-11-29T16:42:25.291Z,8.43
2022-11-29T16:45:02.692Z,9.60
2022-11-29T16:47:32.806Z,9.57
2022-11-29T16:50:02.932Z,10.47
2022-11-29T16:52:32.866Z,9.40
2022-11-29T16:55:00.098Z,9.18
2022-11-29T16:57:28.752Z,8.75
2022-11-29T16:59:55.551Z,8.73
2022-11-29T17:02:22.689Z,8.90
2022-11-29T17:04:51.352Z,8.27
2022-11-29T17:07:27.575Z,8.43
2022-11-29T17:09:54.919Z,7.97
2022-11-29T17:12:21.818Z,8.35
2022-11-29T17:14:48.923Z,8.07
2022-11-29T17:17:18.245Z,8.20
2022-11-29T17:19:45.632Z,8.60
2022-11-29T17:22:13.096Z,8.50
2022-11-29T17:24:43.522Z,9.07
2022-11-29T17:27:15.969Z,9.13
2022-11-29T17:29:42.838Z,9.65
2022-11-29T17:32:09.935Z,9.90
2022-11-29T17:34:36.721Z,8.45
2022-11-29T17:37:03.719Z,8.27
2022-11-29T17:39:30.462Z,7.80
2022-11-29T17:41:57.298Z,8.90
2022-11-29T17:44:24.238Z,8.57
2022-11-29T17:46:51.187Z,9.27
2022-11-29T17:49:18.051Z,9.13
2022-11-29T17:51:53.341Z,9.30
2022-11-29T17:54:21.595Z,9.05
2022-11-29T17:56:48.605Z,9.05
2022-11-29T17:59:15.473Z,9.25
2022-11-29T18:01:42.256Z,8.40
2022-11-29T18:04:09.181Z,8.77
2022-11-29T18:06:38.828Z,9.63
2022-11-29T18:09:07.802Z,9.98
2022-11-29T18:11:46.806Z,9.00
2022-11-29T18:14:17.830Z,8.65
2022-11-29T18:16:47.149Z,9.07
2022-11-29T18:19:16.975Z,9.15
2022-11-29T18:21:44.129Z,9.20
2022-11-29T18:24:11.370Z,8.50
2022-11-29T18:26:39.204Z,8.70
2022-11-29T18:29:07.173Z,10.13
2022-11-29T18:31:36.390Z,9.18
2022-11-29T18:34:05.251Z,8.90
2022-11-29T18:36:34.599Z,8.50
2022-11-29T18:39:07.436Z,8.35
2022-11-29T18:41:34.635Z,9.07
2022-11-29T18:44:04.394Z,8.30
2022-11-29T18:46:31.833Z,7.90
2022-11-29T18:49:00.885Z,8.18
2022-11-29T18:51:29.153Z,7.93
2022-11-29T18:53:56.584Z,8.07
2022-11-29T18:56:25.578Z,8.45
2022-11-29T18:58:58.558Z,7.68
2022-11-29T19:01:28.983Z,7.93
2022-11-29T19:03:58.304Z,7.93
2022-11-29T19:06:38.999Z,7.73
2022-11-29T19:09:11.326Z,7.72
2022-11-29T19:11:38.709Z,7.78
2022-11-29T19:14:07.766Z,7.35
2022-11-29T19:16:35.011Z,8.05
2022-11-29T19:19:02.711Z,7.60
2022-11-29T19:21:31.923Z,7.25
2022-11-29T19:24:04.275Z,7.63
2022-11-29T19:26:32.742Z,7.07
2022-11-29T19:29:01.239Z,6.72
2022-11-29T19:31:29.110Z,7.17
2022-11-29T19:33:57.655Z,6.45
2022-11-29T19:36:25.576Z,6.45
2022-11-29T19:38:54.176Z,7.13
2022-11-29T19:41:31.349Z,6.88
2022-11-29T19:44:00.429Z,6.90
2022-11-29T19:46:32.875Z,7.30
2022-11-29T19:49:00.632Z,6.50
2022-11-29T19:51:28.836Z,6.45
2022-11-29T19:53:58.512Z,6.40
2022-11-29T19:56:25.685Z,6.43
2022-11-29T19:58:52.936Z,6.65
2022-11-29T20:01:22.304Z,6.68
2022-11-29T20:03:49.888Z,6.70
2022-11-29T20:06:18.154Z,6.72
2022-11-29T20:08:45.925Z,6.20
2022-11-29T20:11:16.910Z,6.50
2022-11-29T20:13:45.726Z,6.78
2022-11-29T20:16:15.934Z,6.20
2022-11-29T20:18:50.695Z,6.88
2022-11-29T20:21:20.588Z,6.07
2022-11-29T20:23:47.637Z,6.20
2022-11-29T20:26:20.348Z,6.40
2022-11-29T20:28:48.047Z,5.97
2022-11-29T20:31:17.570Z,6.32
2022-11-29T20:33:46.354Z,5.73
2022-11-29T20:36:28.096Z,6.00
2022-11-29T20:39:06.990Z,6.00
2022-11-29T20:41:43.429Z,6.03
2022-11-29T20:44:16.485Z,6.00
2022-11-29T20:46:43.834Z,5.80
2022-11-29T20:49:15.628Z,6.00
2022-11-29T20:52:02.575Z,5.80
2022-11-29T20:54:29.530Z,5.93
2022-11-29T20:56:56.898Z,6.45
2022-11-29T20:59:23.688Z,5.13
2022-11-29T21:01:50.603Z,4.97
2022-11-29T21:04:22.874Z,5.40
2022-11-29T21:06:50.451Z,5.00
2022-11-29T21:09:17.488Z,6.07
2022-11-29T21:11:45.102Z,5.63
2022-11-29T21:14:12.152Z,6.10
2022-11-29T21:16:40.543Z,6.13
2022-11-29T21:19:12.703Z,6.53
2022-11-29T21:21:49.452Z,6.00
2022-11-29T21:24:34.790Z,5.67
2022-11-29T21:27:03.128Z,5.63
2022-11-29T21:29:30.393Z,6.10
2022-11-29T21:31:57.662Z,5.80
2022-11-29T21:34:24.535Z,5.82
2022-11-29T21:36:59.435Z,6.10
2022-11-29T21:39:32.959Z,5.97
2022-11-29T21:41:59.869Z,6.32
2022-11-29T21:44:26.769Z,6.00
2022-11-29T21:46:53.755Z,6.70
2022-11-29T21:49:20.660Z,6.80
2022-11-29T21:51:47.598Z,6.63
2022-11-29T21:54:14.643Z,6.53
2022-11-29T21:56:41.549Z,7.28
2022-11-29T21:59:08.432Z,11.50
2022-11-29T22:01:35.469Z,11.13
2022-11-29T22:04:02.449Z,11.27
2022-11-29T22:06:29.329Z,11.02
2022-11-29T22:08:56.772Z,9.88
2022-11-29T22:11:24.440Z,9.20
2022-11-29T22:13:53.542Z,6.33
2022-11-29T22:16:20.499Z,6.78
2022-11-29T22:18:47.314Z,6.78
2022-11-29T22:21:14.197Z,6.93
2022-11-29T22:23:41.060Z,6.43
2022-11-29T22:26:08.990Z,6.57
2022-11-29T22:28:36.112Z,7.00
2022-11-29T22:31:11.123Z,6.95
2022-11-29T22:33:38.930Z,7.40
2022-11-29T22:36:08.426Z,6.97
2022-11-29T22:38:37.938Z,7.50
2022-11-29T22:41:13.081Z,7.32
2022-11-29T22:43:41.343Z,6.93
2022-11-29T22:46:09.839Z,7.15
2022-11-29T22:48:39.139Z,7.28
2022-11-29T22:51:14.200Z,7.27
2022-11-29T22:53:43.443Z,7.50
2022-11-29T22:56:11.648Z,7.70
2022-11-29T22:58:38.497Z,6.88
2022-11-29T23:01:13.861Z,7.47
2022-11-29T23:03:43.120Z,6.33
2022-11-29T23:06:16.536Z,6.75
2022-11-29T23:08:44.831Z,7.90
2022-11-29T23:11:14.515Z,7.45
2022-11-29T23:13:42.594Z,7.00
2022-11-29T23:16:15.321Z,6.60
2022-11-29T23:18:42.935Z,7.07
2022-11-29T23:21:19.500Z,6.88
2022-11-29T23:23:50.231Z,6.90
2022-11-29T23:26:26.125Z,7.22
2022-11-29T23:28:53.662Z,7.00
2022-11-29T23:31:21.148Z,7.35
2022-11-29T23:33:48.872Z,6.85
2022-11-29T23:36:16.208Z,6.75
2022-11-29T23:38:43.409Z,7.10
2022-11-29T23:41:11.249Z,6.87
2022-11-29T23:43:40.971Z,6.97
2022-11-29T23:46:22.441Z,6.57
2022-11-29T23:48:49.894Z,7.07
2022-11-29T23:51:17.765Z,7.40
2022-11-29T23:53:44.940Z,6.90
2022-11-29T23:56:17.113Z,7.13
2022-11-29T23:58:45.101Z,6.97
